Time;durP1;ratioP1;P1;durP2;ratioP2;P2;SDS_P1;SDS_P2;PMS_P1;PMS_P2;Temp;Humidity;BMP_temperature;BMP_pressure;BME280_temperature;BME280_humidity;BME280_pressure;Samples;Min_cycle;Max_cycle;Signal;HPM_P1;HPM_P2
2022/06/10 00:00:22;;;;;;;9.32;2.75;;;15.20;99.90;;;;;;5095045;28;20123;-78
2022/06/10 00:02:47;;;;;;;16.77;3.85;;;15.20;99.90;;;;;;5095036;28;20081;-78
2022/06/10 00:05:19;;;;;;;13.02;3.30;;;15.20;99.90;;;;;;5094189;28;20488;-79
2022/06/10 00:07:46;;;;;;;10.27;3.25;;;15.30;99.90;;;;;;5094964;28;20472;-78
2022/06/10 00:10:14;;;;;;;16.58;4.15;;;15.30;99.90;;;;;;5094863;28;20495;-78
2022/06/10 00:12:40;;;;;;;7.70;2.42;;;15.40;99.90;;;;;;5094379;28;20054;-79
2022/06/10 00:15:07;;;;;;;8.38;2.10;;;15.50;99.90;;;;;;5094810;28;20055;-77
2022/06/10 00:17:32;;;;;;;8.93;2.20;;;15.60;99.90;;;;;;5093906;28;20082;-78
2022/06/10 00:19:58;;;;;;;14.02;2.40;;;15.60;99.90;;;;;;5094943;28;20056;-78
2022/06/10 00:22:24;;;;;;;9.30;2.92;;;15.80;99.90;;;;;;5094811;28;20016;-78
2022/06/10 00:24:51;;;;;;;11.48;2.50;;;15.80;99.90;;;;;;5094028;28;20020;-79
2022/06/10 00:27:17;;;;;;;7.57;2.40;;;15.90;99.90;;;;;;5094618;28;20091;-78
2022/06/10 00:29:43;;;;;;;10.68;3.00;;;15.90;99.90;;;;;;5094491;28;20395;-78
2022/06/10 00:32:12;;;;;;;7.18;2.50;;;15.90;99.90;;;;;;5093664;28;20025;-78
2022/06/10 00:34:37;;;;;;;11.00;2.50;;;16.00;99.90;;;;;;5094703;28;20396;-78
2022/06/10 00:37:04;;;;;;;12.07;2.95;;;16.00;99.90;;;;;;5094295;28;20020;-78
2022/06/10 00:39:30;;;;;;;8.77;2.92;;;15.90;99.90;;;;;;5093665;28;20177;-78
2022/06/10 00:41:56;;;;;;;8.40;2.97;;;16.00;99.90;;;;;;5094413;28;20016;-78
2022/06/10 00:44:33;;;;;;;16.60;3.08;;;16.00;99.90;;;;;;5094421;28;20386;-78
2022/06/10 00:47:01;;;;;;;10.10;3.30;;;16.00;99.90;;;;;;5093928;28;20032;-78
2022/06/10 00:49:27;;;;;;;11.88;3.17;;;16.00;99.90;;;;;;5095916;28;20020;-78
2022/06/10 00:51:55;;;;;;;15.18;3.72;;;16.00;99.90;;;;;;5094222;28;20055;-77
2022/06/10 00:54:29;;;;;;;11.70;3.20;;;16.00;99.90;;;;;;5093466;28;20028;-77
2022/06/10 00:57:00;;;;;;;13.13;3.30;;;16.00;99.90;;;;;;5094009;28;20082;-77
2022/06/10 00:59:53;;;;;;;10.73;3.58;;;16.10;99.90;;;;;;5093753;28;20106;-78
2022/06/10 01:02:24;;;;;;;12.20;3.38;;;15.70;99.90;;;;;;5089255;28;20032;-78
2022/06/10 01:04:51;;;;;;;12.35;3.17;;;16.00;99.90;;;;;;5094274;28;20068;-78
2022/06/10 01:07:22;;;;;;;10.35;2.72;;;16.00;99.90;;;;;;5093417;28;20410;-78
2022/06/10 01:09:49;;;;;;;12.52;3.85;;;16.10;99.90;;;;;;5093835;28;20379;-78
2022/06/10 01:12:17;;;;;;;10.77;2.95;;;16.10;99.90;;;;;;5093973;28;20020;-78
2022/06/10 01:15:13;;;;;;;10.82;2.85;;;16.10;99.90;;;;;;5093135;28;20024;-78
2022/06/10 01:18:08;;;;;;;6.97;2.70;;;16.10;99.90;;;;;;5093624;28;20089;-77
2022/06/10 01:20:58;;;;;;;10.23;3.17;;;16.10;99.90;;;;;;5093734;28;20472;-77
2022/06/10 01:23:35;;;;;;;8.85;2.47;;;16.10;99.90;;;;;;5093876;28;20031;-76
2022/06/10 01:26:10;;;;;;;11.02;2.47;;;16.20;99.90;;;;;;5093560;28;20107;-77
2022/06/10 01:29:21;;;;;;;12.30;2.55;;;16.20;99.90;;;;;;5092708;28;20020;-77
2022/06/10 01:31:52;;;;;;;7.93;2.85;;;16.20;99.90;;;;;;5082729;28;20456;-76
2022/06/10 01:34:50;;;;;;;6.80;2.40;;;16.20;99.90;;;;;;5094202;28;20106;-76
2022/06/10 01:37:22;;;;;;;10.65;2.83;;;16.20;99.90;;;;;;5094397;28;20016;-78
2022/06/10 01:40:11;;;;;;;7.60;2.47;;;16.10;99.90;;;;;;5094825;28;20024;-76
2022/06/10 01:42:51;;;;;;;13.70;2.97;;;16.20;99.90;;;;;;5097156;28;20024;-77
2022/06/10 01:45:36;;;;;;;10.98;2.53;;;16.20;99.90;;;;;;5093785;28;20468;-77
2022/06/10 01:48:07;;;;;;;11.07;3.47;;;16.20;99.90;;;;;;5093737;28;20066;-77
2022/06/10 01:50:55;;;;;;;13.15;3.10;;;16.30;99.90;;;;;;5092596;28;20032;-76
2022/06/10 01:53:28;;;;;;;10.95;2.97;;;16.20;99.90;;;;;;5094846;28;20024;-77
2022/06/10 01:56:14;;;;;;;19.55;2.90;;;16.30;99.90;;;;;;5093530;28;20043;-77
2022/06/10 01:58:51;;;;;;;10.00;2.78;;;16.20;99.90;;;;;;5092471;28;20040;-77
2022/06/10 02:01:22;;;;;;;8.55;2.58;;;16.30;99.90;;;;;;5092987;28;20048;-78
2022/06/10 02:03:58;;;;;;;10.65;2.85;;;16.30;99.90;;;;;;5092350;28;20490;-77
2022/06/10 02:06:34;;;;;;;10.80;2.65;;;16.30;99.90;;;;;;5093251;28;20391;-78
2022/06/10 02:09:15;;;;;;;5.50;1.98;;;16.40;99.90;;;;;;5092902;28;20111;-77
2022/06/10 02:11:46;;;;;;;8.52;2.45;;;16.30;99.90;;;;;;5092301;28;20044;-77
2022/06/10 02:14:20;;;;;;;7.75;3.03;;;16.30;99.90;;;;;;5092885;28;20036;-79
2022/06/10 02:16:48;;;;;;;13.90;3.53;;;16.30;99.90;;;;;;5093064;28;20028;-78
2022/06/10 02:19:27;;;;;;;9.90;2.63;;;16.40;99.90;;;;;;5091906;28;20484;-77
2022/06/10 02:22:12;;;;;;;7.32;2.25;;;16.40;99.90;;;;;;5092680;28;20036;-78
2022/06/10 02:24:46;;;;;;;10.80;2.70;;;16.40;99.90;;;;;;5092127;28;20438;-78
2022/06/10 02:27:26;;;;;;;10.80;2.60;;;16.40;99.90;;;;;;5092823;28;20032;-77
2022/06/10 02:30:11;;;;;;;9.60;2.53;;;16.40;99.90;;;;;;5092790;28;20028;-77
2022/06/10 02:32:38;;;;;;;15.10;2.75;;;16.30;99.90;;;;;;5093816;28;20073;-78
2022/06/10 02:35:06;;;;;;;5.55;1.92;;;16.40;99.90;;;;;;5092789;28;20491;-78
2022/06/10 02:38:05;;;;;;;8.73;2.70;;;16.40;99.90;;;;;;5092834;28;20028;-78
2022/06/10 02:40:44;;;;;;;7.90;2.90;;;16.40;99.90;;;;;;5052170;28;20421;-78
2022/06/10 02:43:25;;;;;;;11.25;3.15;;;16.50;99.90;;;;;;5092661;28;20032;-78
2022/06/10 02:45:50;;;;;;;;;;;16.40;99.90;;;;;;5092368;28;20062;-79
2022/06/10 02:48:47;;;;;;;9.32;2.55;;;16.40;99.90;;;;;;5092543;28;19904;-78
2022/06/10 02:51:14;;;;;;;8.15;2.80;;;16.40;99.90;;;;;;5092575;28;20052;-78
2022/06/10 02:53:40;;;;;;;11.00;2.97;;;16.40;99.90;;;;;;5091772;28;20024;-77
2022/06/10 02:56:20;;;;;;;8.35;2.35;;;16.40;99.90;;;;;;5092617;28;20028;-77
2022/06/10 03:01:53;;;;;;;14.98;3.03;;;16.50;99.90;;;;;;5095780;28;20270;-78
2022/06/10 03:04:43;;;;;;;9.05;2.30;;;16.50;99.90;;;;;;5096214;28;20435;-78
2022/06/10 03:07:39;;;;;;;8.73;2.25;;;16.50;99.90;;;;;;5095845;28;20031;-77
2022/06/10 03:10:26;;;;;;;8.15;2.00;;;16.60;99.90;;;;;;5096393;28;20056;-78
2022/06/10 03:13:12;;;;;;;6.15;2.28;;;16.60;99.90;;;;;;5096276;28;20032;-77
2022/06/10 03:15:41;;;;;;;4.47;2.10;;;16.50;99.90;;;;;;5095931;28;20545;-77
2022/06/10 03:18:12;;;;;;;4.85;2.15;;;16.50;99.90;;;;;;5095947;28;20093;-79
2022/06/10 03:20:55;;;;;;;10.02;2.22;;;16.50;99.90;;;;;;5096486;28;20027;-78
2022/06/10 03:24:05;;;;;;;10.18;1.80;;;16.50;99.90;;;;;;5095892;28;20020;-77
2022/06/10 03:26:43;;;;;;;7.40;1.85;;;16.50;99.90;;;;;;5057902;28;20056;-77
2022/06/10 03:29:26;;;;;;;9.70;1.98;;;16.70;99.90;;;;;;5095104;28;20028;-78
2022/06/10 03:31:58;;;;;;;8.48;2.90;;;16.60;99.90;;;;;;5095676;28;20036;-78
2022/06/10 03:34:30;;;;;;;8.13;2.03;;;16.60;99.90;;;;;;5096924;28;20103;-78
2022/06/10 03:37:00;;;;;;;7.50;2.65;;;16.60;99.90;;;;;;5095467;28;20028;-78
2022/06/10 03:39:26;;;;;;;5.75;1.90;;;16.50;99.90;;;;;;5095549;28;20503;-77
2022/06/10 03:42:13;;;;;;;7.40;2.38;;;16.50;99.90;;;;;;5094516;28;20513;-77
2022/06/10 03:44:39;;;;;;;11.70;2.42;;;16.50;99.90;;;;;;5095689;28;20031;-77
2022/06/10 03:47:07;;;;;;;9.90;2.67;;;16.50;99.90;;;;;;5095810;28;20024;-77
2022/06/10 03:50:01;;;;;;;9.55;1.85;;;16.40;99.90;;;;;;5094679;28;20431;-77
2022/06/10 03:52:30;;;;;;;8.60;2.03;;;16.50;99.90;;;;;;5095472;28;20016;-77
2022/06/10 03:54:56;;;;;;;10.57;2.20;;;16.50;99.90;;;;;;5095372;28;20077;-76
2022/06/10 03:57:21;;;;;;;6.40;1.60;;;16.50;99.90;;;;;;5094626;28;20426;-77
2022/06/10 03:59:47;;;;;;;5.82;1.90;;;16.40;99.90;;;;;;5095090;28;20071;-76
2022/06/10 04:02:14;;;;;;;7.47;1.88;;;16.40;99.90;;;;;;5095199;28;20028;-77
2022/06/10 04:04:42;;;;;;;11.63;1.95;;;16.50;99.90;;;;;;5094473;28;20065;-77
2022/06/10 04:07:10;;;;;;;11.82;1.85;;;16.50;99.90;;;;;;5095095;28;20032;-77
2022/06/10 04:09:36;;;;;;;8.25;1.80;;;16.40;99.90;;;;;;5094574;28;20028;-77
2022/06/10 04:12:02;;;;;;;8.55;1.83;;;16.40;99.90;;;;;;5095141;28;20059;-76
2022/06/10 04:14:28;;;;;;;6.55;1.67;;;16.40;99.90;;;;;;5097358;28;20024;-76
2022/06/10 04:16:54;;;;;;;6.13;1.60;;;16.40;99.90;;;;;;5100396;28;20483;-78
2022/06/10 04:19:20;;;;;;;6.38;1.95;;;16.40;99.90;;;;;;5096805;28;20035;-77
2022/06/10 04:21:45;;;;;;;8.90;1.88;;;16.40;99.90;;;;;;5095067;28;20534;-77
2022/06/10 04:24:11;;;;;;;7.10;2.00;;;16.40;99.90;;;;;;5094826;28;20047;-77
2022/06/10 04:26:37;;;;;;;6.00;1.70;;;16.40;99.90;;;;;;5096271;28;20027;-77
2022/06/10 04:29:03;;;;;;;3.55;1.75;;;16.40;99.90;;;;;;5095916;28;20439;-77
2022/06/10 04:31:28;;;;;;;5.75;1.90;;;16.50;99.90;;;;;;5094257;28;20070;-78
2022/06/10 04:33:54;;;;;;;7.20;2.28;;;16.50;99.90;;;;;;5094409;28;20024;-76
2022/06/10 04:36:20;;;;;;;8.60;2.38;;;16.50;99.90;;;;;;5094665;28;20020;-76
2022/06/10 04:38:46;;;;;;;4.72;1.65;;;16.60;99.90;;;;;;5093734;28;20028;-77
2022/06/10 04:41:13;;;;;;;9.82;2.55;;;16.60;99.90;;;;;;5094379;28;20024;-78
2022/06/10 04:43:39;;;;;;;6.55;2.38;;;16.60;99.90;;;;;;5094238;28;20032;-77
2022/06/10 04:46:07;;;;;;;10.25;1.90;;;16.60;99.90;;;;;;5093671;28;20028;-76
2022/06/10 04:48:34;;;;;;;8.52;2.20;;;16.60;99.90;;;;;;5094263;28;20509;-77
2022/06/10 04:50:59;;;;;;;11.93;2.28;;;16.70;99.90;;;;;;5094156;28;20032;-77
2022/06/10 04:53:25;;;;;;;10.32;3.10;;;16.80;99.90;;;;;;5093609;28;20076;-77
2022/06/10 04:55:51;;;;;;;8.88;2.35;;;16.90;99.90;;;;;;5094199;28;20483;-77
2022/06/10 04:58:17;;;;;;;6.95;2.08;;;16.90;99.90;;;;;;5093875;28;20111;-77
2022/06/10 05:00:47;;;;;;;11.02;2.70;;;16.90;99.90;;;;;;5093159;28;20507;-76
2022/06/10 05:03:13;;;;;;;11.45;2.42;;;16.90;99.90;;;;;;5093918;28;20028;-76
2022/06/10 05:05:39;;;;;;;5.68;1.85;;;16.90;99.90;;;;;;5093887;28;20023;-77
2022/06/10 05:08:06;;;;;;;7.78;1.95;;;16.80;99.90;;;;;;5093645;28;20024;-76
2022/06/10 05:10:31;;;;;;;8.63;1.92;;;16.80;99.90;;;;;;5093834;28;20089;-77
2022/06/10 05:12:57;;;;;;;7.65;2.58;;;16.80;99.90;;;;;;5093231;28;20028;-76
2022/06/10 05:15:23;;;;;;;10.77;2.15;;;16.80;99.90;;;;;;5093640;28;20521;-77
2022/06/10 05:17:51;;;;;;;9.55;2.22;;;16.80;99.90;;;;;;5095828;28;20051;-78
2022/06/10 05:20:26;;;;;;;7.60;2.28;;;16.80;99.90;;;;;;5093632;28;20127;-76
2022/06/10 05:22:52;;;;;;;10.30;3.58;;;16.80;99.90;;;;;;5093943;28;20032;-76
2022/06/10 05:25:17;;;;;;;9.52;2.35;;;16.80;99.90;;;;;;5093531;28;20349;-77
2022/06/10 05:27:44;;;;;;;8.50;2.28;;;16.80;99.90;;;;;;5093955;28;20032;-77
2022/06/10 05:30:16;;;;;;;6.60;2.17;;;16.80;99.90;;;;;;5093597;28;20115;-77
2022/06/10 05:32:41;;;;;;;6.78;2.65;;;16.70;99.90;;;;;;5093513;28;20024;-77
2022/06/10 05:35:07;;;;;;;11.73;3.70;;;16.80;99.90;;;;;;5092951;28;20031;-76
2022/06/10 05:37:33;;;;;;;7.68;2.15;;;16.80;99.90;;;;;;5093579;28;20468;-77
2022/06/10 05:40:00;;;;;;;5.13;2.33;;;16.80;99.90;;;;;;5093573;28;20028;-77
2022/06/10 05:42:26;;;;;;;12.63;2.45;;;16.80;99.90;;;;;;5092676;28;20073;-77
2022/06/10 05:44:52;;;;;;;11.93;3.53;;;16.90;99.90;;;;;;5093131;28;20099;-77
2022/06/10 05:47:25;;;;;;;10.15;2.15;;;16.90;99.90;;;;;;5093162;28;20617;-77
2022/06/10 05:49:53;;;;;;;11.43;2.45;;;17.00;99.90;;;;;;5092909;28;20494;-77
2022/06/10 05:52:22;;;;;;;7.18;2.30;;;17.10;99.90;;;;;;5093581;28;20046;-77
2022/06/10 05:54:49;;;;;;;9.70;2.28;;;17.10;99.90;;;;;;5093920;28;20035;-78
2022/06/10 05:57:15;;;;;;;9.73;2.78;;;17.10;99.90;;;;;;5092813;28;20030;-77
2022/06/10 05:59:41;;;;;;;9.02;2.45;;;17.20;99.90;;;;;;5093930;28;20492;-76
2022/06/10 06:02:10;;;;;;;12.38;3.28;;;17.20;99.90;;;;;;5095047;28;20035;-78
2022/06/10 06:04:36;;;;;;;8.27;2.45;;;17.20;99.90;;;;;;5092971;28;20470;-77
2022/06/10 06:07:02;;;;;;;8.13;2.15;;;17.30;99.90;;;;;;5092997;28;20046;-77
2022/06/10 06:09:28;;;;;;;10.55;2.40;;;17.30;99.90;;;;;;5092249;28;20477;-76
2022/06/10 06:11:56;;;;;;;8.73;2.92;;;17.30;99.90;;;;;;5092790;28;20035;-76
2022/06/10 06:14:25;;;;;;;8.93;2.60;;;17.40;99.90;;;;;;5093015;28;20093;-78
2022/06/10 06:16:54;;;;;;;6.97;2.70;;;17.40;99.90;;;;;;5092264;28;20103;-78
2022/06/10 06:19:20;;;;;;;7.18;2.20;;;17.40;99.90;;;;;;5092755;28;20064;-77
2022/06/10 06:21:46;;;;;;;9.23;2.30;;;17.50;99.90;;;;;;5092735;28;20031;-77
2022/06/10 06:24:12;;;;;;;9.95;2.53;;;17.60;99.90;;;;;;5091876;28;20032;-77
2022/06/10 06:26:37;;;;;;;6.53;1.98;;;17.50;99.90;;;;;;5092919;28;20032;-77
2022/06/10 06:29:03;;;;;;;10.02;2.58;;;17.60;99.90;;;;;;5092770;28;20016;-77
2022/06/10 06:31:29;;;;;;;10.98;2.75;;;17.70;99.90;;;;;;5092094;28;20032;-78
2022/06/10 06:33:54;;;;;;;8.90;2.15;;;17.80;99.90;;;;;;5092608;28;20107;-78
2022/06/10 06:36:25;;;;;;;8.55;2.45;;;17.90;99.90;;;;;;5095512;28;20020;-77
2022/06/10 06:38:51;;;;;;;5.00;2.28;;;17.90;99.90;;;;;;5095778;28;20437;-77
2022/06/10 06:41:18;;;;;;;10.07;2.45;;;18.10;99.90;;;;;;5096695;28;20043;-77
2022/06/10 06:43:44;;;;;;;8.75;2.17;;;18.20;99.90;;;;;;5097013;28;20020;-77
2022/06/10 06:46:12;;;;;;;9.35;2.28;;;18.20;99.90;;;;;;5096413;28;20066;-78
2022/06/10 06:48:38;;;;;;;8.50;2.13;;;18.30;99.90;;;;;;5097992;28;20024;-78
2022/06/10 06:51:04;;;;;;;7.32;2.15;;;18.40;99.90;;;;;;5098439;28;20024;-77
2022/06/10 06:53:32;;;;;;;9.27;2.50;;;18.50;99.90;;;;;;5096383;28;20353;-77
2022/06/10 06:55:58;;;;;;;9.52;2.63;;;18.50;99.90;;;;;;5096705;28;20039;-77
2022/06/10 06:58:23;;;;;;;10.48;2.55;;;18.60;99.90;;;;;;5095659;28;20123;-77
2022/06/10 07:00:49;;;;;;;7.70;2.63;;;18.60;99.90;;;;;;5097633;28;20044;-77
2022/06/10 07:03:15;;;;;;;8.82;2.97;;;18.70;99.90;;;;;;5104194;28;20028;-77
2022/06/10 07:05:42;;;;;;;7.07;2.50;;;18.80;99.90;;;;;;5097238;28;20472;-77
2022/06/10 07:08:09;;;;;;;8.05;2.70;;;18.90;99.90;;;;;;5096271;28;20035;-77
2022/06/10 07:10:35;;;;;;;8.05;2.85;;;19.00;99.90;;;;;;5097110;28;20074;-77
2022/06/10 07:13:01;;;;;;;13.98;3.97;;;19.10;99.90;;;;;;5095604;28;20024;-77
2022/06/10 07:15:27;;;;;;;11.57;3.03;;;19.20;99.90;;;;;;5095955;28;20016;-77
2022/06/10 07:17:53;;;;;;;11.60;3.30;;;19.30;99.90;;;;;;5095572;28;20039;-77
2022/06/10 07:20:25;;;;;;;11.23;3.25;;;19.60;99.90;;;;;;5097249;28;20066;-77
2022/06/10 07:22:51;;;;;;;8.65;3.85;;;19.80;99.90;;;;;;5095986;28;20073;-77
2022/06/10 07:25:17;;;;;;;9.77;3.47;;;20.00;99.90;;;;;;5095629;28;20418;-77
2022/06/10 07:27:43;;;;;;;9.75;3.15;;;20.10;99.90;;;;;;5094686;28;20028;-76
2022/06/10 07:30:12;;;;;;;7.35;3.15;;;20.20;99.90;;;;;;5095312;28;20020;-75
2022/06/10 07:32:39;;;;;;;11.30;4.03;;;20.30;99.90;;;;;;5095385;28;20411;-75
2022/06/10 07:35:05;;;;;;;6.90;3.63;;;20.40;99.90;;;;;;5094638;28;20039;-75
2022/06/10 07:37:30;;;;;;;15.40;5.07;;;20.40;99.90;;;;;;5095198;28;20543;-77
2022/06/10 07:39:57;;;;;;;9.43;3.05;;;20.50;99.90;;;;;;5095253;28;20028;-76
2022/06/10 07:42:22;;;;;;;9.38;4.05;;;20.50;99.90;;;;;;5094737;28;20056;-75
2022/06/10 07:44:48;;;;;;;10.40;4.22;;;20.60;99.90;;;;;;5095500;28;20077;-76
2022/06/10 07:47:15;;;;;;;10.63;4.18;;;20.60;99.90;;;;;;5094395;28;20361;-76
2022/06/10 07:49:41;;;;;;;13.52;4.25;;;20.70;99.90;;;;;;5094455;28;20035;-75
2022/06/10 07:52:08;;;;;;;11.63;4.05;;;20.70;99.90;;;;;;5095234;28;20016;-76
2022/06/10 07:54:34;;;;;;;14.10;4.40;;;20.80;99.90;;;;;;5094453;28;20028;-76
2022/06/10 07:57:00;;;;;;;10.15;3.80;;;20.60;99.90;;;;;;5095008;28;20119;-76
2022/06/10 07:59:26;;;;;;;10.55;4.47;;;20.90;99.90;;;;;;5094519;28;20492;-76
2022/06/10 08:01:52;;;;;;;11.15;4.60;;;20.90;99.90;;;;;;5094657;28;20059;-76
2022/06/10 08:04:18;;;;;;;9.27;4.10;;;20.90;99.90;;;;;;5095114;28;20538;-76
2022/06/10 08:06:46;;;;;;;13.95;4.00;;;20.90;99.90;;;;;;5095029;28;20022;-76
2022/06/10 08:09:14;;;;;;;9.77;3.63;;;20.90;99.90;;;;;;5094340;28;20032;-76
2022/06/10 08:11:40;;;;;;;10.38;4.10;;;20.90;99.90;;;;;;5094968;28;20024;-76
2022/06/10 08:14:06;;;;;;;11.10;4.15;;;21.00;99.90;;;;;;5094865;28;20031;-76
2022/06/10 08:16:33;;;;;;;14.32;3.83;;;21.10;99.90;;;;;;5093951;28;20024;-76
2022/06/10 08:18:59;;;;;;;13.98;3.65;;;21.10;99.90;;;;;;5094566;28;20074;-76
2022/06/10 08:24:26;;;;;;;13.98;4.00;;;21.20;99.90;;;;;;5011819;28;20087;-75
2022/06/10 08:26:52;;;;;;;12.02;4.35;;;21.30;99.90;;;;;;5077031;28;20035;-76
2022/06/10 08:29:18;;;;;;;15.95;4.90;;;21.40;99.90;;;;;;5094412;28;20031;-77
2022/06/10 08:31:45;;;;;;;10.68;3.92;;;21.50;99.90;;;;;;5093522;28;20408;-75
2022/06/10 08:34:11;;;;;;;9.52;3.53;;;21.60;99.90;;;;;;5094315;28;20357;-76
2022/06/10 08:36:37;;;;;;;11.27;3.60;;;21.60;99.90;;;;;;5094226;28;20031;-75
2022/06/10 08:39:03;;;;;;;12.95;3.97;;;21.70;99.90;;;;;;5093440;28;20048;-75
2022/06/10 08:41:58;;;;;;;8.90;3.22;;;21.80;99.90;;;;;;5094181;28;20027;-78
2022/06/10 08:44:47;;;;;;;9.25;3.40;;;21.70;99.90;;;;;;5048514;28;20031;-76
2022/06/10 08:47:33;;;;;;;8.63;3.00;;;21.60;99.90;;;;;;5094253;28;20095;-74
2022/06/10 08:50:42;;;;;;;12.48;3.13;;;21.60;99.90;;;;;;5093920;28;20032;-76
2022/06/10 08:53:13;;;;;;;6.97;2.67;;;21.40;99.90;;;;;;5066854;28;20373;-77
2022/06/10 08:56:00;;;;;;;7.70;3.75;;;21.30;99.90;;;;;;5093912;28;20409;-77
2022/06/10 08:58:56;;;;;;;17.35;4.30;;;21.20;99.90;;;;;;5092855;28;20468;-77
2022/06/10 09:01:23;;;;;;;9.95;2.42;;;21.10;99.90;;;;;;5093662;28;20138;-77
2022/06/10 09:04:10;;;;;;;8.63;2.78;;;21.10;99.90;;;;;;5094188;28;20097;-74
2022/06/10 09:07:05;;;;;;;7.38;2.70;;;21.00;99.90;;;;;;5093072;28;20076;-77
2022/06/10 09:09:33;;;;;;;7.72;3.30;;;21.00;99.90;;;;;;5091271;28;20423;-76
2022/06/10 09:12:17;;;;;;;13.95;3.30;;;21.00;99.90;;;;;;5092985;28;20028;-76
2022/06/10 09:14:45;;;;;;;6.57;2.70;;;20.90;99.90;;;;;;5093672;28;20513;-74
2022/06/10 09:17:13;;;;;;;12.30;3.13;;;20.90;99.90;;;;;;5093460;28;20472;-78
2022/06/10 09:19:53;;;;;;;7.70;3.50;;;20.90;99.90;;;;;;5092916;28;20118;-76
2022/06/10 09:22:39;;;;;;;;;;;20.90;99.90;;;;;;5094487;28;20103;-76
2022/06/10 09:25:25;;;;;;;10.00;2.65;;;20.90;99.90;;;;;;5086743;28;19957;-77
2022/06/10 09:27:56;;;;;;;8.95;2.90;;;20.90;99.90;;;;;;5094507;28;20028;-77
2022/06/10 09:30:33;;;;;;;6.43;2.50;;;21.00;99.90;;;;;;5094696;28;20028;-77
2022/06/10 09:33:35;;;;;;;5.20;3.03;;;21.10;99.90;;;;;;5093135;28;20031;-77
2022/06/10 09:36:19;;;;;;;7.15;2.47;;;21.10;99.90;;;;;;5089521;28;20372;-77
2022/06/10 09:39:04;;;;;;;9.35;3.00;;;21.40;99.90;;;;;;5095418;28;20032;-76
2022/06/10 09:41:55;;;;;;;6.40;1.77;;;21.60;99.90;;;;;;5092481;28;20023;-76
2022/06/10 09:44:30;;;;;;;3.95;2.38;;;21.60;99.90;;;;;;5092985;28;20031;-76
2022/06/10 09:47:33;;;;;;;4.00;1.75;;;21.60;99.90;;;;;;5093158;28;20024;-76
2022/06/10 09:50:06;;;;;;;3.55;1.83;;;21.70;99.90;;;;;;5093030;28;20028;-77
2022/06/10 09:53:12;;;;;;;4.80;2.13;;;21.60;99.90;;;;;;5093044;28;20027;-75
2022/06/10 09:55:40;;;;;;;8.43;2.30;;;21.50;99.90;;;;;;5092493;28;20028;-76
2022/06/10 09:58:31;;;;;;;5.22;2.38;;;21.60;99.90;;;;;;5092775;28;20040;-75
2022/06/10 10:01:22;;;;;;;6.68;1.75;;;21.60;99.90;;;;;;5092476;28;20048;-76
2022/06/10 10:04:20;;;;;;;7.03;2.90;;;21.70;99.90;;;;;;5092820;28;20028;-77
2022/06/10 10:07:03;;;;;;;8.27;2.45;;;21.80;99.90;;;;;;5092605;28;20480;-77
2022/06/10 10:10:05;;;;;;;7.70;2.28;;;21.70;99.90;;;;;;5091790;28;20028;-77
2022/06/10 10:12:45;;;;;;;8.57;2.38;;;21.70;99.90;;;;;;5092850;28;20066;-77
2022/06/10 10:15:38;;;;;;;8.07;2.03;;;21.70;99.90;;;;;;5091972;28;20016;-77
2022/06/10 10:18:23;;;;;;;5.57;2.10;;;21.80;99.90;;;;;;5092853;28;20048;-77
2022/06/10 10:21:00;;;;;;;4.95;1.77;;;21.90;99.90;;;;;;5092568;28;20024;-77
2022/06/10 10:23:35;;;;;;;5.57;2.00;;;22.00;99.90;;;;;;5092032;28;20052;-77
2022/06/10 10:26:22;;;;;;;4.13;1.73;;;22.00;99.90;;;;;;5092427;28;20383;-77
2022/06/10 10:28:53;;;;;;;5.28;1.90;;;22.00;99.90;;;;;;5092503;28;20387;-77
2022/06/10 10:31:34;;;;;;;4.55;1.60;;;22.10;99.90;;;;;;5091661;28;20444;-77
2022/06/10 10:34:04;;;;;;;3.47;1.40;;;22.30;99.90;;;;;;5092416;28;20103;-77
2022/06/10 10:36:32;;;;;;;7.50;2.08;;;22.40;99.90;;;;;;5091875;28;20056;-77
2022/06/10 10:39:12;;;;;;;2.45;1.45;;;22.50;99.90;;;;;;5092436;28;20043;-77
2022/06/10 10:41:42;;;;;;;6.03;2.08;;;22.50;99.90;;;;;;5092369;28;20024;-76
2022/06/10 10:44:31;;;;;;;4.32;1.30;;;22.50;99.90;;;;;;5091643;28;20046;-77
2022/06/10 10:47:09;;;;;;;3.80;1.25;;;22.40;99.90;;;;;;5092205;28;20051;-77
2022/06/10 10:49:38;;;;;;;3.60;1.30;;;22.30;99.90;;;;;;5092294;28;20123;-77
2022/06/10 10:52:38;;;;;;;9.90;1.90;;;22.20;99.90;;;;;;5091544;28;20021;-77
2022/06/10 10:55:11;;;;;;;;;;;22.00;99.90;;;;;;5092124;28;20069;-77
2022/06/10 10:57:40;;;;;;;4.38;1.63;;;21.80;99.90;;;;;;5091993;28;19904;-77
2022/06/10 11:00:11;;;;;;;8.45;1.55;;;21.80;99.90;;;;;;5091870;28;20055;-78
2022/06/10 11:02:39;;;;;;;6.60;2.08;;;21.80;99.90;;;;;;5092138;28;20020;-78
2022/06/10 11:05:22;;;;;;;4.63;2.08;;;21.90;99.90;;;;;;5091603;28;20066;-77
2022/06/10 11:08:14;;;;;;;4.60;2.33;;;22.00;99.90;;;;;;5092422;28;20093;-77
2022/06/10 11:10:49;;;;;;;3.38;2.17;;;22.30;99.90;;;;;;5092055;28;20047;-77
2022/06/10 11:13:20;;;;;;;6.18;2.28;;;22.70;99.90;;;;;;5091946;28;20035;-77
2022/06/10 11:15:48;;;;;;;3.90;2.50;;;23.00;99.90;;;;;;5091877;28;20021;-77
2022/06/10 11:18:14;;;;;;;10.05;3.15;;;23.30;99.90;;;;;;5092006;28;20040;-77
2022/06/10 11:20:40;;;;;;;5.95;2.83;;;23.30;99.90;;;;;;5091065;28;20468;-78
2022/06/10 11:23:26;;;;;;;5.72;3.35;;;23.60;99.90;;;;;;5093953;28;20081;-78
2022/06/10 11:26:22;;;;;;;6.35;2.63;;;23.70;99.90;;;;;;5094906;28;20065;-77
2022/06/10 11:28:59;;;;;;;5.57;3.33;;;23.60;99.90;;;;;;5074432;28;20036;-77
2022/06/10 11:31:33;;;;;;;6.85;3.00;;;23.60;99.90;;;;;;5095623;28;20024;-77
2022/06/10 11:34:01;;;;;;;2.97;2.20;;;23.80;99.90;;;;;;5094602;28;20480;-76
2022/06/10 11:36:35;;;;;;;4.85;2.60;;;23.80;99.90;;;;;;5095302;28;20115;-77
2022/06/10 11:39:17;;;;;;;4.50;2.63;;;23.80;99.90;;;;;;5095105;28;20039;-77
2022/06/10 11:41:59;;;;;;;4.65;3.13;;;23.70;99.90;;;;;;5094531;28;20057;-77
2022/06/10 11:44:27;;;;;;;3.65;2.75;;;23.80;99.90;;;;;;5095097;28;20455;-77
2022/06/10 11:47:23;;;;;;;9.38;3.35;;;23.80;99.90;;;;;;5094319;28;20443;-77
2022/06/10 11:50:10;;;;;;;8.63;4.82;;;23.80;99.90;;;;;;5095291;28;20032;-77
2022/06/10 11:52:50;;;;;;;8.48;4.40;;;23.90;99.90;;;;;;5094965;28;20020;-77
2022/06/10 11:55:20;;;;;;;;;;;24.00;99.90;;;;;;5095084;28;20486;-76
2022/06/10 12:00:49;;;;;;;14.77;5.30;;;24.20;99.90;;;;;;5095597;28;20109;-77
2022/06/10 12:03:30;;;;;;;9.52;3.97;;;24.20;99.90;;;;;;5095217;28;20020;-76
2022/06/10 12:06:20;;;;;;;4.88;3.75;;;24.20;99.90;;;;;;5094903;28;20032;-76
2022/06/10 12:09:01;;;;;;;8.20;4.20;;;24.20;99.90;;;;;;5094689;28;20096;-76
2022/06/10 12:11:39;;;;;;;7.90;3.88;;;24.30;99.90;;;;;;5096271;28;20028;-78
2022/06/10 12:14:13;;;;;;;7.70;4.00;;;24.20;99.90;;;;;;5096325;28;20024;-75
2022/06/10 12:16:39;;;;;;;9.60;4.10;;;24.10;99.90;;;;;;5094414;28;20435;-75
2022/06/10 12:19:13;;;;;;;5.22;2.60;;;24.20;99.90;;;;;;5094845;28;20063;-76
2022/06/10 12:21:40;;;;;;;6.75;2.60;;;24.40;99.90;;;;;;5094408;28;20024;-75
2022/06/10 12:24:14;;;;;;;8.93;2.83;;;24.40;99.90;;;;;;5093600;28;20028;-78
2022/06/10 12:26:46;;;;;;;7.07;2.13;;;24.40;99.90;;;;;;5094196;28;20182;-77
2022/06/10 12:29:31;;;;;;;7.10;2.30;;;24.40;99.90;;;;;;5093856;28;20440;-76
2022/06/10 12:32:13;;;;;;;7.22;2.33;;;24.20;99.90;;;;;;5094335;28;20104;-77
2022/06/10 12:34:59;;;;;;;3.28;2.45;;;24.10;99.90;;;;;;5093710;28;20020;-77
2022/06/10 12:37:46;;;;;;;4.35;2.70;;;24.20;99.90;;;;;;5093687;28;20035;-77
2022/06/10 12:40:25;;;;;;;3.55;2.67;;;24.40;99.90;;;;;;5093989;28;20036;-77
2022/06/10 12:42:56;;;;;;;5.80;3.60;;;24.60;99.90;;;;;;5093485;28;20525;-76
2022/06/10 12:45:28;;;;;;;4.65;2.50;;;24.70;99.90;;;;;;5093939;28;20100;-77
2022/06/10 12:47:59;;;;;;;6.20;2.92;;;24.70;99.90;;;;;;5095020;28;20426;-77
2022/06/10 12:50:47;;;;;;;5.25;3.40;;;24.60;99.90;;;;;;5093784;28;20024;-76
2022/06/10 12:53:51;;;;;;;6.38;3.22;;;24.50;99.90;;;;;;5093916;28;20024;-77
2022/06/10 12:56:23;;;;;;;6.45;3.38;;;24.50;99.90;;;;;;5075980;28;20047;-76
2022/06/10 12:58:54;;;;;;;5.00;2.90;;;24.70;99.90;;;;;;5094652;28;20054;-77
2022/06/10 13:01:41;;;;;;;6.97;2.95;;;24.80;99.90;;;;;;5093468;28;20048;-78
2022/06/10 13:04:13;;;;;;;7.35;2.70;;;25.00;99.90;;;;;;5092826;28;20027;-77
2022/06/10 13:06:41;;;;;;;8.77;2.50;;;25.00;99.90;;;;;;5093615;28;20498;-77
2022/06/10 13:09:07;;;;;;;4.20;1.90;;;25.20;99.60;;;;;;5093665;28;20024;-77
2022/06/10 13:11:47;;;;;;;13.20;3.30;;;25.10;99.70;;;;;;5092825;28;20028;-77
2022/06/10 13:14:25;;;;;;;11.02;2.67;;;25.10;99.80;;;;;;5093220;28;20032;-76
2022/06/10 13:16:59;;;;;;;5.78;2.70;;;25.10;99.80;;;;;;5093316;28;20027;-77
2022/06/10 13:19:37;;;;;;;7.00;2.20;;;24.90;99.90;;;;;;5092490;28;20040;-77
2022/06/10 13:22:30;;;;;;;4.50;2.20;;;24.60;99.90;;;;;;5093115;28;20055;-76
2022/06/10 13:24:55;;;;;;;10.15;2.90;;;24.50;99.90;;;;;;5093279;28;20100;-77
2022/06/10 13:27:28;;;;;;;5.90;2.13;;;24.40;99.90;;;;;;5092627;28;20065;-78